Time;durP1;ratioP1;P1;durP2;ratioP2;P2;SDS_P1;SDS_P2;PMS_P1;PMS_P2;Temp;Humidity;BMP_temperature;BMP_pressure;BME280_temperature;BME280_humidity;BME280_pressure;Samples;Min_cycle;Max_cycle;Signal;HPM_P1;HPM_P2
2023/07/11 00:00:57;;;;;;;9.10;2.08;;;22.20;93.60;;;;;;5093540;28;20383;-73
2023/07/11 00:03:23;;;;;;;5.97;1.75;;;22.20;93.70;;;;;;5093770;28;20028;-71
2023/07/11 00:06:07;;;;;;;7.30;2.10;;;22.20;93.80;;;;;;5092213;28;20391;-71
2023/07/11 00:08:36;;;;;;;11.98;1.92;;;22.10;93.80;;;;;;5093666;28;20024;-72
2023/07/11 00:11:02;;;;;;;7.88;1.77;;;22.10;94.00;;;;;;5093298;28;20098;-71
2023/07/11 00:13:29;;;;;;;4.78;1.52;;;22.10;94.10;;;;;;5093559;28;20427;-71
2023/07/11 00:16:01;;;;;;;6.25;1.85;;;22.00;94.20;;;;;;5093315;28;20031;-71
2023/07/11 00:18:28;;;;;;;5.32;1.63;;;21.90;94.30;;;;;;5093401;28;20038;-72
2023/07/11 00:20:54;;;;;;;7.63;1.98;;;21.90;94.50;;;;;;5093123;28;20073;-72
2023/07/11 00:23:19;;;;;;;8.70;1.92;;;22.00;94.50;;;;;;5093416;28;20028;-71
2023/07/11 00:25:45;;;;;;;7.50;2.00;;;21.90;94.60;;;;;;5093012;28;20020;-71
2023/07/11 00:28:11;;;;;;;9.48;2.30;;;21.90;94.70;;;;;;5093391;28;20030;-71
2023/07/11 00:30:40;;;;;;;9.43;1.92;;;21.80;94.70;;;;;;5093188;28;20032;-72
2023/07/11 00:33:05;;;;;;;7.00;1.90;;;21.80;94.80;;;;;;5093487;28;20043;-72
2023/07/11 00:35:31;;;;;;;4.47;1.85;;;21.80;95.10;;;;;;5091939;28;20064;-72
2023/07/11 00:37:56;;;;;;;4.15;1.80;;;21.70;95.10;;;;;;5093303;28;20546;-72
2023/07/11 00:40:22;;;;;;;7.90;2.53;;;21.70;95.20;;;;;;5092845;28;20520;-71
2023/07/11 00:42:52;;;;;;;6.72;2.33;;;21.70;95.30;;;;;;5093265;28;20520;-71
2023/07/11 00:45:55;;;;;;;6.28;2.03;;;21.70;95.40;;;;;;5093030;28;20049;-70
2023/07/11 00:48:23;;;;;;;6.15;1.70;;;21.70;95.30;;;;;;5093198;28;20123;-70
2023/07/11 00:50:50;;;;;;;6.07;1.83;;;21.60;95.40;;;;;;5093004;28;20027;-70
2023/07/11 00:53:17;;;;;;;6.85;2.17;;;21.60;95.40;;;;;;5092766;28;20093;-71
2023/07/11 00:55:43;;;;;;;7.50;1.88;;;21.60;95.30;;;;;;5093034;28;20071;-71
2023/07/11 00:58:09;;;;;;;5.10;1.73;;;21.60;95.60;;;;;;5093129;28;20044;-70
2023/07/11 01:00:35;;;;;;;7.85;1.92;;;21.60;95.50;;;;;;5092926;28;20082;-71
2023/07/11 01:03:00;;;;;;;8.70;2.35;;;21.50;95.70;;;;;;5093090;28;20020;-71
2023/07/11 01:05:26;;;;;;;7.82;1.90;;;21.60;95.70;;;;;;5093124;28;20055;-71
2023/07/11 01:07:52;;;;;;;7.57;2.67;;;21.50;95.60;;;;;;5091306;28;20055;-70
2023/07/11 01:10:17;;;;;;;7.90;2.97;;;21.50;95.60;;;;;;5092926;28;20028;-70
2023/07/11 01:12:47;;;;;;;6.20;2.25;;;21.50;95.70;;;;;;5092924;28;20461;-71
2023/07/11 01:15:13;;;;;;;9.65;2.67;;;21.40;95.70;;;;;;5092890;28;20457;-70
2023/07/11 01:17:39;;;;;;;4.40;1.90;;;21.50;95.80;;;;;;5095791;28;20024;-71
2023/07/11 01:20:08;;;;;;;7.22;2.60;;;21.40;95.90;;;;;;5096868;28;20484;-70
2023/07/11 01:22:36;;;;;;;4.88;2.50;;;21.50;95.90;;;;;;5096342;28;20027;-71
2023/07/11 01:25:08;;;;;;;8.30;2.47;;;21.50;95.70;;;;;;5096736;28;20085;-71
2023/07/11 01:27:35;;;;;;;10.20;3.47;;;21.50;95.60;;;;;;5096520;28;20019;-70
2023/07/11 01:30:04;;;;;;;6.22;2.72;;;21.50;95.70;;;;;;5096576;28;20016;-71
2023/07/11 01:32:30;;;;;;;9.02;2.60;;;21.60;95.40;;;;;;5096566;28;20415;-70
2023/07/11 01:34:56;;;;;;;8.32;2.85;;;21.50;95.10;;;;;;5096490;28;20409;-70
2023/07/11 01:37:21;;;;;;;8.73;2.70;;;21.60;94.90;;;;;;5096083;28;20469;-70
2023/07/11 01:39:47;;;;;;;6.22;2.75;;;21.60;94.80;;;;;;5096489;28;20103;-71
2023/07/11 01:42:12;;;;;;;7.25;2.92;;;21.60;95.10;;;;;;5096222;28;20028;-71
2023/07/11 01:44:38;;;;;;;9.40;2.30;;;21.50;95.20;;;;;;5096238;28;20024;-71
2023/07/11 01:47:05;;;;;;;8.00;2.80;;;21.40;95.40;;;;;;5096089;28;20028;-70
2023/07/11 01:52:15;;;;;;;9.60;2.97;;;21.40;95.20;;;;;;5128225;22;20095;-68
2023/07/11 01:54:40;;;;;;;7.38;3.42;;;21.50;94.90;;;;;;5075921;28;20060;-66
2023/07/11 01:57:07;;;;;;;7.55;3.33;;;21.50;94.80;;;;;;5075541;28;20511;-69
2023/07/11 01:59:34;;;;;;;12.27;3.80;;;21.60;94.60;;;;;;5076004;28;20023;-71
2023/07/11 02:01:59;;;;;;;8.85;3.25;;;21.50;94.60;;;;;;5075824;28;20171;-64
2023/07/11 02:04:25;;;;;;;7.75;3.05;;;21.50;94.70;;;;;;5075719;28;20036;-63
2023/07/11 02:06:51;;;;;;;8.48;2.85;;;21.40;94.80;;;;;;5075548;28;20027;-64
2023/07/11 02:09:18;;;;;;;7.32;3.03;;;21.40;94.70;;;;;;5057548;28;20101;-63
2023/07/11 02:11:44;;;;;;;6.60;3.03;;;21.40;94.70;;;;;;5075672;28;20052;-63
2023/07/11 02:14:13;;;;;;;8.35;3.50;;;21.40;94.60;;;;;;5075502;28;20487;-64
2023/07/11 02:16:39;;;;;;;8.68;3.28;;;21.50;94.40;;;;;;5075463;28;20043;-64
2023/07/11 02:19:04;;;;;;;8.75;3.03;;;21.50;94.50;;;;;;5075284;28;20017;-63
2023/07/11 02:21:30;;;;;;;13.55;3.63;;;21.40;94.60;;;;;;5075111;28;20431;-64
2023/07/11 02:23:56;;;;;;;8.63;3.42;;;21.40;94.50;;;;;;5075115;28;20028;-63
2023/07/11 02:26:25;;;;;;;9.23;3.28;;;21.40;94.60;;;;;;5075532;28;20020;-64
2023/07/11 02:28:51;;;;;;;10.05;3.33;;;21.30;94.80;;;;;;5073872;28;20024;-64
2023/07/11 02:31:16;;;;;;;8.77;2.97;;;21.30;94.70;;;;;;5075407;28;20054;-64
2023/07/11 02:33:42;;;;;;;9.43;2.75;;;21.40;94.90;;;;;;5075182;28;20032;-63
2023/07/11 02:36:07;;;;;;;9.40;3.05;;;21.30;94.80;;;;;;5076807;28;20060;-63
2023/07/11 02:38:33;;;;;;;6.50;2.40;;;21.30;94.90;;;;;;5077283;28;20483;-71
2023/07/11 02:40:58;;;;;;;7.03;2.25;;;21.30;94.80;;;;;;5075170;28;20099;-71
2023/07/11 02:43:24;;;;;;;8.07;2.35;;;21.30;95.00;;;;;;5074976;28;20024;-71
2023/07/11 02:45:50;;;;;;;6.78;2.42;;;21.30;94.70;;;;;;5075055;28;20070;-70
2023/07/11 02:48:16;;;;;;;6.55;2.28;;;21.30;94.70;;;;;;5074929;28;20123;-70
2023/07/11 02:50:42;;;;;;;7.40;2.72;;;21.30;95.00;;;;;;5074748;28;20056;-72
2023/07/11 02:53:07;;;;;;;8.30;2.78;;;21.20;95.20;;;;;;5074117;28;20072;-71
2023/07/11 02:55:37;;;;;;;9.98;2.55;;;21.20;95.40;;;;;;5074492;28;20024;-71
2023/07/11 02:58:03;;;;;;;10.30;2.90;;;21.20;95.60;;;;;;5074186;28;20075;-68
2023/07/11 03:00:28;;;;;;;9.48;3.35;;;21.10;95.70;;;;;;5074539;28;20024;-69
2023/07/11 03:02:54;;;;;;;7.30;2.72;;;21.10;95.90;;;;;;5074673;28;20099;-64
2023/07/11 03:05:19;;;;;;;7.68;3.30;;;21.00;96.10;;;;;;5074258;28;20029;-70
2023/07/11 03:07:45;;;;;;;8.02;3.38;;;21.00;96.30;;;;;;5074473;28;20060;-69
2023/07/11 03:10:11;;;;;;;6.75;2.67;;;21.00;96.50;;;;;;5074453;28;20031;-65
2023/07/11 03:12:36;;;;;;;5.82;2.50;;;21.00;96.50;;;;;;5074393;28;20029;-70
2023/07/11 03:15:02;;;;;;;5.45;2.53;;;20.90;96.60;;;;;;5074139;28;20029;-63
2023/07/11 03:17:27;;;;;;;6.70;2.60;;;20.90;96.40;;;;;;5074358;28;20545;-71
2023/07/11 03:19:53;;;;;;;7.38;3.13;;;20.90;96.50;;;;;;5073747;28;20028;-70
2023/07/11 03:22:19;;;;;;;7.05;2.92;;;20.90;96.40;;;;;;5074274;28;20035;-71
2023/07/11 03:24:44;;;;;;;8.38;2.90;;;20.90;96.40;;;;;;5073781;28;20024;-64
2023/07/11 03:27:10;;;;;;;8.80;2.70;;;20.90;96.20;;;;;;5074409;28;20215;-71
2023/07/11 03:29:35;;;;;;;7.40;3.03;;;20.90;96.00;;;;;;5074107;28;20035;-66
2023/07/11 03:32:02;;;;;;;8.95;3.30;;;20.90;95.90;;;;;;5074025;28;20031;-69
2023/07/11 03:34:28;;;;;;;6.10;2.80;;;20.80;96.10;;;;;;5073577;28;20032;-65
2023/07/11 03:36:53;;;;;;;8.23;2.83;;;20.80;96.10;;;;;;5073731;28;20035;-66
2023/07/11 03:39:19;;;;;;;5.72;2.55;;;20.80;96.10;;;;;;5073704;28;20024;-64
2023/07/11 03:41:44;;;;;;;9.00;2.83;;;20.70;96.10;;;;;;5073951;28;20067;-64
2023/07/11 03:44:10;;;;;;;5.75;2.78;;;20.80;96.00;;;;;;5073645;28;20029;-66
2023/07/11 03:46:36;;;;;;;6.65;3.15;;;20.80;96.00;;;;;;5073916;28;20021;-64
2023/07/11 03:49:02;;;;;;;7.57;3.15;;;20.80;96.00;;;;;;5073453;28;20028;-63
2023/07/11 03:51:28;;;;;;;12.23;3.65;;;20.70;96.20;;;;;;5075864;22;20045;-73
2023/07/11 03:53:53;;;;;;;9.75;3.42;;;20.70;96.20;;;;;;5053610;28;20044;-73
2023/07/11 03:56:19;;;;;;;7.47;3.47;;;20.70;96.50;;;;;;5053465;28;20489;-73
2023/07/11 03:58:44;;;;;;;9.45;3.60;;;20.70;96.50;;;;;;5053506;28;20496;-73
2023/07/11 04:01:10;;;;;;;10.18;4.53;;;20.70;96.50;;;;;;5053432;28;20481;-73
2023/07/11 04:03:35;;;;;;;7.82;3.55;;;20.70;96.40;;;;;;5035469;28;20485;-73
2023/07/11 04:06:01;;;;;;;10.07;3.33;;;20.70;96.40;;;;;;5053426;28;20373;-73
2023/07/11 04:08:26;;;;;;;10.80;3.83;;;20.70;96.60;;;;;;5053580;28;20373;-73
2023/07/11 04:10:52;;;;;;;12.23;3.92;;;20.60;96.70;;;;;;5053146;28;20021;-73
2023/07/11 04:13:18;;;;;;;9.27;3.65;;;20.70;96.60;;;;;;5053469;28;20033;-73
2023/07/11 04:15:43;;;;;;;8.18;2.85;;;20.60;96.60;;;;;;5053250;28;20033;-73
2023/07/11 04:18:09;;;;;;;10.75;3.33;;;20.70;96.40;;;;;;5053038;28;20025;-73
2023/07/11 04:20:35;;;;;;;9.55;3.10;;;20.70;96.20;;;;;;5053444;28;20044;-73
2023/07/11 04:23:01;;;;;;;8.55;3.05;;;20.80;95.90;;;;;;5053186;28;20041;-72
2023/07/11 04:25:27;;;;;;;10.57;3.05;;;20.80;95.70;;;;;;5053159;28;20053;-73
2023/07/11 04:27:52;;;;;;;5.95;2.90;;;20.80;95.70;;;;;;5053179;28;20056;-73
2023/07/11 04:30:18;;;;;;;7.38;2.83;;;20.80;95.50;;;;;;5052924;28;20028;-72
2023/07/11 04:32:43;;;;;;;7.35;3.17;;;20.80;95.50;;;;;;5053058;28;20024;-73
2023/07/11 04:35:13;;;;;;;5.43;2.72;;;20.90;95.30;;;;;;5052906;28;20075;-73
2023/07/11 04:37:39;;;;;;;7.88;2.85;;;20.90;95.20;;;;;;5052997;28;20063;-73
2023/07/11 04:40:06;;;;;;;8.48;3.30;;;20.90;95.50;;;;;;5035307;28;20053;-73
2023/07/11 04:42:32;;;;;;;4.93;2.72;;;21.00;95.10;;;;;;5052963;28;20021;-73
2023/07/11 04:44:57;;;;;;;6.22;2.80;;;20.90;95.10;;;;;;5052713;28;20032;-73
2023/07/11 04:47:23;;;;;;;7.50;2.47;;;21.00;94.90;;;;;;5052898;28;20059;-73
2023/07/11 04:49:49;;;;;;;8.13;2.50;;;21.00;94.90;;;;;;5052812;28;20044;-73
2023/07/11 04:52:14;;;;;;;5.60;1.73;;;21.00;94.90;;;;;;5055156;28;20457;-73
2023/07/11 04:54:40;;;;;;;7.00;2.45;;;21.10;95.20;;;;;;5057079;28;20037;-73
2023/07/11 04:57:05;;;;;;;6.32;2.45;;;21.10;94.70;;;;;;5056812;28;20033;-73
2023/07/11 04:59:31;;;;;;;6.95;2.22;;;21.10;94.50;;;;;;5056677;28;20017;-73
2023/07/11 05:01:56;;;;;;;5.78;2.53;;;21.10;94.50;;;;;;5071802;28;20469;-73
2023/07/11 05:04:22;;;;;;;6.55;2.42;;;21.20;94.40;;;;;;5076652;28;20377;-73
2023/07/11 05:06:48;;;;;;;7.60;2.17;;;21.20;94.20;;;;;;5076750;28;20760;-73
2023/07/11 05:09:15;;;;;;;7.03;2.17;;;21.40;94.00;;;;;;5076789;28;20032;-73
2023/07/11 05:11:41;;;;;;;8.68;2.50;;;21.50;94.10;;;;;;5076501;28;20461;-73
2023/07/11 05:14:06;;;;;;;8.88;2.30;;;21.50;93.50;;;;;;5076566;28;20031;-73
2023/07/11 05:16:32;;;;;;;4.53;1.88;;;21.50;93.50;;;;;;5076502;28;20451;-73
2023/07/11 05:18:58;;;;;;;5.55;2.30;;;21.70;93.90;;;;;;5076419;28;20046;-73
2023/07/11 05:21:24;;;;;;;8.70;1.90;;;21.70;93.50;;;;;;5076376;28;20381;-73
2023/07/11 05:23:50;;;;;;;6.22;2.25;;;21.70;93.40;;;;;;5076493;28;20086;-73
2023/07/11 05:26:17;;;;;;;5.35;1.73;;;21.80;93.10;;;;;;5076446;28;20376;-73
2023/07/11 05:28:44;;;;;;;8.77;2.60;;;21.80;93.30;;;;;;5058181;28;20373;-73
2023/07/11 05:31:10;;;;;;;7.13;3.17;;;21.90;92.80;;;;;;5075109;28;20461;-72
2023/07/11 05:33:36;;;;;;;6.32;2.35;;;21.90;92.80;;;;;;5076092;28;20027;-73
2023/07/11 05:36:32;;;;;;;7.88;2.53;;;21.80;92.80;;;;;;5076090;28;20056;-73
2023/07/11 05:39:10;;;;;;;6.90;2.28;;;21.80;92.90;;;;;;5076209;28;20078;-73
2023/07/11 05:41:37;;;;;;;5.63;2.35;;;21.90;92.90;;;;;;5076007;28;20103;-73
2023/07/11 05:44:03;;;;;;;5.40;1.80;;;21.90;92.70;;;;;;5075737;28;20029;-73
2023/07/11 05:46:29;;;;;;;5.47;1.83;;;21.90;92.80;;;;;;5076088;28;20031;-73
2023/07/11 05:48:56;;;;;;;5.50;1.80;;;22.00;92.60;;;;;;5075828;28;20024;-73
2023/07/11 05:51:23;;;;;;;3.30;1.70;;;22.10;92.90;;;;;;5057897;28;20028;-73
2023/07/11 05:53:49;;;;;;;6.65;2.15;;;22.30;92.80;;;;;;5075923;28;20050;-73
2023/07/11 05:56:16;;;;;;;6.80;2.05;;;22.40;92.40;;;;;;5075877;28;20038;-73
2023/07/11 05:58:45;;;;;;;3.45;1.45;;;22.50;92.00;;;;;;5075362;28;20074;-73
2023/07/11 06:01:11;;;;;;;4.60;1.65;;;22.50;92.20;;;;;;5075936;28;20024;-71
2023/07/11 06:03:40;;;;;;;5.82;1.58;;;22.60;91.80;;;;;;5075448;28;20381;-73
2023/07/11 06:06:07;;;;;;;4.45;1.50;;;22.70;91.50;;;;;;5075948;28;20071;-73
2023/07/11 06:08:32;;;;;;;3.42;1.77;;;22.70;91.80;;;;;;5075592;28;20525;-74
2023/07/11 06:11:00;;;;;;;5.25;1.90;;;22.80;91.60;;;;;;5075440;28;20024;-74
2023/07/11 06:13:27;;;;;;;6.25;1.67;;;22.80;91.40;;;;;;5075176;28;20020;-74
2023/07/11 06:16:05;;;;;;;5.25;1.70;;;22.90;91.50;;;;;;5057474;28;20029;-74
2023/07/11 06:18:34;;;;;;;3.30;1.20;;;23.00;91.20;;;;;;5075361;28;20533;-74
2023/07/11 06:20:59;;;;;;;5.15;1.80;;;23.00;91.50;;;;;;5075670;28;20036;-74
2023/07/11 06:23:25;;;;;;;4.50;1.38;;;23.10;91.00;;;;;;5075328;28;20024;-74
2023/07/11 06:25:51;;;;;;;5.28;1.50;;;23.20;91.20;;;;;;5075240;28;20020;-74
2023/07/11 06:28:16;;;;;;;3.70;1.70;;;23.20;91.00;;;;;;5074847;28;20089;-74
2023/07/11 06:30:42;;;;;;;4.28;1.48;;;23.30;90.70;;;;;;5075222;28;20098;-74
2023/07/11 06:33:12;;;;;;;4.82;1.60;;;23.30;90.90;;;;;;5075099;28;20100;-74
2023/07/11 06:35:40;;;;;;;6.68;2.05;;;23.40;90.40;;;;;;5075168;28;20016;-74
2023/07/11 06:38:09;;;;;;;7.50;1.73;;;23.50;90.40;;;;;;5075014;28;20044;-74
2023/07/11 06:40:35;;;;;;;4.95;1.67;;;23.50;90.20;;;;;;5075130;28;20456;-74
2023/07/11 06:43:00;;;;;;;6.53;1.88;;;23.60;90.30;;;;;;5074436;28;20078;-74
2023/07/11 06:45:26;;;;;;;7.95;1.80;;;23.60;90.10;;;;;;5075238;28;20028;-74
2023/07/11 06:47:52;;;;;;;6.65;1.90;;;23.70;90.00;;;;;;5075060;28;20429;-74
2023/07/11 06:50:18;;;;;;;4.63;1.40;;;23.70;90.00;;;;;;5074673;28;20481;-74
2023/07/11 06:52:44;;;;;;;6.57;2.10;;;23.70;90.30;;;;;;5074691;28;20093;-74
2023/07/11 06:55:10;;;;;;;4.25;1.55;;;23.80;89.40;;;;;;5074592;28;20466;-74
2023/07/11 06:57:35;;;;;;;6.00;1.70;;;23.80;89.70;;;;;;5074313;28;20033;-74
2023/07/11 07:00:02;;;;;;;5.40;1.25;;;23.90;90.00;;;;;;5074589;28;20517;-74
2023/07/11 07:02:28;;;;;;;3.17;1.17;;;23.90;90.10;;;;;;5056608;28;20400;-74
2023/07/11 07:04:55;;;;;;;6.35;1.40;;;24.00;89.90;;;;;;5074528;28;20020;-74
2023/07/11 07:07:21;;;;;;;5.85;1.48;;;24.00;89.70;;;;;;5074408;28;20024;-74
2023/07/11 07:09:46;;;;;;;4.35;2.08;;;24.10;89.20;;;;;;5074153;28;20086;-74
2023/07/11 07:12:12;;;;;;;8.57;1.58;;;24.20;88.60;;;;;;5056695;28;20051;-74
2023/07/11 07:14:38;;;;;;;4.38;1.20;;;24.20;88.40;;;;;;5073685;28;20101;-74
2023/07/11 07:17:03;;;;;;;2.53;1.00;;;24.30;89.20;;;;;;5056224;28;20155;-74
2023/07/11 07:19:29;;;;;;;6.63;1.35;;;24.30;89.00;;;;;;5074126;28;20040;-75
2023/07/11 07:21:55;;;;;;;2.33;0.88;;;24.40;88.60;;;;;;5074124;28;20107;-74
2023/07/11 07:24:20;;;;;;;5.75;1.83;;;24.40;88.70;;;;;;5073927;28;20103;-74
2023/07/11 07:26:46;;;;;;;2.50;1.05;;;24.40;87.90;;;;;;5056204;28;20032;-74
2023/07/11 07:29:11;;;;;;;9.13;1.40;;;24.50;88.50;;;;;;5073961;28;20016;-74
2023/07/11 07:31:37;;;;;;;8.38;1.77;;;24.50;88.50;;;;;;5073973;28;20385;-74
2023/07/11 07:34:02;;;;;;;3.58;1.30;;;24.60;88.10;;;;;;5073857;28;20115;-74
2023/07/11 07:36:28;;;;;;;3.28;1.42;;;24.60;88.00;;;;;;5073931;28;20040;-74
2023/07/11 07:38:53;;;;;;;7.80;1.85;;;24.60;87.70;;;;;;5073681;28;20016;-74
2023/07/11 07:41:20;;;;;;;3.15;1.00;;;24.70;87.60;;;;;;5073635;28;20103;-74
2023/07/11 07:43:45;;;;;;;4.88;1.30;;;24.80;87.70;;;;;;5073717;28;20029;-74
2023/07/11 07:46:16;;;;;;;3.15;1.20;;;24.80;87.00;;;;;;5073786;28;20119;-75
2023/07/11 07:48:43;;;;;;;6.50;2.03;;;24.80;87.30;;;;;;5073862;28;20070;-74
2023/07/11 07:51:11;;;;;;;3.97;1.13;;;24.80;87.20;;;;;;5073265;28;20033;-75
2023/07/11 07:53:37;;;;;;;2.78;1.35;;;24.90;87.00;;;;;;5055362;28;20083;-75
2023/07/11 07:56:17;;;;;;;6.57;1.30;;;24.90;87.00;;;;;;5073328;28;20028;-74
2023/07/11 07:58:43;;;;;;;3.35;1.38;;;25.00;87.00;;;;;;5055784;28;20024;-74
2023/07/11 08:01:09;;;;;;;6.75;1.75;;;25.10;87.00;;;;;;5073459;28;20389;-74
2023/07/11 08:03:38;;;;;;;4.22;1.30;;;25.10;86.60;;;;;;5073465;28;20033;-74
2023/07/11 08:06:05;;;;;;;2.65;1.05;;;25.10;86.50;;;;;;5073332;28;20071;-74
2023/07/11 08:08:31;;;;;;;5.10;1.80;;;25.10;86.50;;;;;;5073331;28;20358;-74
2023/07/11 08:11:01;;;;;;;4.97;1.33;;;25.20;86.40;;;;;;5073180;28;20558;-73
2023/07/11 08:13:28;;;;;;;4.22;1.40;;;25.30;85.40;;;;;;5073499;28;20043;-75
2023/07/11 08:15:53;;;;;;;3.35;1.10;;;25.30;85.80;;;;;;5073098;28;20021;-73
2023/07/11 08:18:19;;;;;;;4.72;1.65;;;25.30;86.00;;;;;;5073176;28;20430;-73
2023/07/11 08:20:44;;;;;;;2.60;1.42;;;25.30;85.90;;;;;;5055324;28;20365;-73
2023/07/11 08:23:10;;;;;;;4.75;1.13;;;25.30;85.70;;;;;;5054734;28;20031;-73
2023/07/11 08:25:36;;;;;;;2.90;1.25;;;25.30;85.60;;;;;;5072305;28;20052;-74
2023/07/11 08:28:04;;;;;;;6.57;1.50;;;25.40;85.70;;;;;;5054883;28;20107;-73
2023/07/11 08:30:33;;;;;;;2.30;0.70;;;25.40;85.40;;;;;;5072972;28;20028;-73
2023/07/11 08:32:59;;;;;;;2.53;1.27;;;25.50;85.40;;;;;;5072994;28;20025;-73
2023/07/11 08:35:25;;;;;;;4.50;1.83;;;25.50;85.20;;;;;;5073122;28;20346;-73
2023/07/11 08:37:50;;;;;;;1.98;0.90;;;25.60;85.00;;;;;;5072911;28;20108;-73
2023/07/11 08:40:19;;;;;;;3.78;1.13;;;25.60;85.10;;;;;;5073071;28;20052;-73
2023/07/11 08:42:45;;;;;;;2.67;1.00;;;25.60;85.00;;;;;;5072990;28;20020;-73
2023/07/11 08:45:14;;;;;;;2.67;0.90;;;25.60;84.80;;;;;;5072841;28;20055;-73
2023/07/11 08:47:45;;;;;;;3.47;1.17;;;25.70;84.70;;;;;;5072816;28;20025;-73
2023/07/11 08:50:18;;;;;;;2.53;1.00;;;25.70;84.70;;;;;;5072713;28;20485;-73
2023/07/11 08:52:48;;;;;;;5.93;1.48;;;25.80;84.60;;;;;;5072563;28;20448;-73
2023/07/11 08:55:30;;;;;;;4.10;1.52;;;25.80;84.60;;;;;;5072901;28;20028;-73
2023/07/11 08:58:05;;;;;;;;;;;25.90;84.70;;;;;;5073052;28;20063;-73
2023/07/11 09:00:32;;;;;;;7.65;1.52;;;25.80;84.00;;;;;;5073036;28;20276;-73
2023/07/11 09:03:17;;;;;;;3.00;1.30;;;25.90;83.70;;;;;;5072690;28;20017;-73
2023/07/11 09:06:05;;;;;;;3.95;1.73;;;26.00;83.60;;;;;;5072912;28;20074;-73
2023/07/11 09:08:31;;;;;;;3.42;1.13;;;26.00;83.50;;;;;;5072879;28;20032;-73
2023/07/11 09:11:12;;;;;;;8.88;1.58;;;26.00;83.80;;;;;;5072673;28;20033;-73
2023/07/11 09:13:55;;;;;;;3.28;1.10;;;26.10;83.80;;;;;;5072648;28;20473;-73
2023/07/11 09:16:26;;;;;;;3.85;1.23;;;26.10;83.50;;;;;;5072533;28;20071;-73
2023/07/11 09:19:14;;;;;;;2.80;1.17;;;26.10;83.80;;;;;;5072668;28;20124;-73
2023/07/11 09:21:56;;;;;;;2.72;1.13;;;26.10;83.60;;;;;;5072194;28;20718;-73
2023/07/11 09:24:38;;;;;;;2.70;1.00;;;26.10;83.40;;;;;;5072650;28;20035;-73
2023/07/11 09:27:09;;;;;;;6.85;1.73;;;26.10;83.10;;;;;;5054645;28;20024;-73
2023/07/11 09:29:35;;;;;;;9.10;1.65;;;26.10;82.80;;;;;;5072832;28;20029;-73
2023/07/11 09:32:02;;;;;;;5.20;1.52;;;26.20;82.60;;;;;;5072501;28;20020;-73
2023/07/11 09:34:35;;;;;;;10.57;1.42;;;26.20;82.80;;;;;;5072678;28;20023;-73
2023/07/11 09:37:13;;;;;;;4.03;1.33;;;26.20;82.90;;;;;;5054390;28;20385;-73
2023/07/11 09:39:48;;;;;;;4.97;1.35;;;26.20;82.60;;;;;;5076266;28;20383;-73
2023/07/11 09:42:41;;;;;;;5.60;1.38;;;26.20;82.70;;;;;;5075987;28;20469;-73
2023/07/11 09:45:13;;;;;;;5.50;1.50;;;26.20;82.70;;;;;;5075905;28;20483;-73
2023/07/11 09:47:40;;;;;;;3.78;1.50;;;26.30;82.80;;;;;;5075995;28;20044;-73
2023/07/11 09:50:31;;;;;;;3.40;1.33;;;26.30;82.80;;;;;;5075493;28;20075;-73
2023/07/11 09:53:00;;;;;;;3.55;1.20;;;26.30;83.20;;;;;;5075795;28;20032;-73
2023/07/11 09:55:35;;;;;;;3.85;1.42;;;26.30;83.00;;;;;;5075917;28;20051;-73
2023/07/11 09:58:02;;;;;;;2.85;1.10;;;26.30;83.10;;;;;;5057682;28;20111;-73
2023/07/11 10:00:29;;;;;;;3.42;1.10;;;26.30;83.30;;;;;;5075699;28;20427;-73
2023/07/11 10:02:58;;;;;;;3.05;1.20;;;26.30;82.50;;;;;;5075685;28;20028;-74
2023/07/11 10:05:24;;;;;;;3.03;1.15;;;26.40;82.80;;;;;;5075489;28;20461;-73
2023/07/11 10:08:12;;;;;;;6.45;1.90;;;26.30;82.30;;;;;;5075562;28;20040;-73
2023/07/11 10:10:45;;;;;;;2.80;1.38;;;26.40;82.30;;;;;;5057658;28;20089;-73
2023/07/11 10:13:11;;;;;;;4.22;1.40;;;26.50;82.50;;;;;;5057525;28;20024;-73
2023/07/11 10:15:37;;;;;;;3.05;1.23;;;26.40;82.40;;;;;;5075501;28;20107;-75
2023/07/11 10:18:03;;;;;;;4.25;1.58;;;26.40;82.30;;;;;;5075321;28;20100;-73
2023/07/11 10:20:30;;;;;;;2.85;1.33;;;26.40;83.10;;;;;;5075118;28;20392;-73
2023/07/11 10:23:05;;;;;;;3.13;1.33;;;26.50;82.10;;;;;;5075342;28;20008;-72
2023/07/11 10:25:31;;;;;;;3.10;1.20;;;26.50;82.20;;;;;;5075406;28;20032;-73
2023/07/11 10:28:22;;;;;;;2.70;1.13;;;26.50;82.10;;;;;;5075397;28;20071;-73
2023/07/11 10:30:50;;;;;;;2.70;0.95;;;26.50;82.80;;;;;;5075071;28;20107;-73
2023/07/11 10:33:24;;;;;;;3.67;1.85;;;26.50;81.90;;;;;;5074785;28;20380;-73
2023/07/11 10:35:55;;;;;;;3.05;1.70;;;26.60;82.10;;;;;;5074976;28;20024;-73
2023/07/11 10:38:27;;;;;;;4.68;2.03;;;26.60;82.30;;;;;;5074873;28;20105;-75
2023/07/11 10:40:55;;;;;;;;;;;26.60;82.00;;;;;;5075870;28;20021;-73
2023/07/11 10:43:28;;;;;;;5.80;1.23;;;26.60;82.00;;;;;;5074873;28;20356;-75
2023/07/11 10:46:09;;;;;;;4.18;1.90;;;26.60;82.00;;;;;;5075006;28;20024;-72
2023/07/11 10:48:42;;;;;;;4.53;1.50;;;26.60;82.20;;;;;;5073929;28;20055;-72
2023/07/11 10:51:19;;;;;;;2.47;1.35;;;26.60;81.80;;;;;;5074262;28;20194;-73
2023/07/11 10:53:52;;;;;;;4.80;1.77;;;26.60;81.60;;;;;;5074783;28;20012;-75
2023/07/11 10:56:26;;;;;;;2.85;1.40;;;26.70;81.80;;;;;;5074699;28;20029;-73
2023/07/11 10:58:53;;;;;;;5.82;1.83;;;26.70;81.50;;;;;;5056768;28;20056;-73
2023/07/11 11:01:35;;;;;;;5.30;1.98;;;26.60;81.60;;;;;;5074625;28;20035;-74
2023/07/11 11:04:32;;;;;;;3.17;1.33;;;26.60;81.30;;;;;;5074137;28;20099;-72
2023/07/11 11:07:23;;;;;;;2.83;1.23;;;26.60;81.10;;;;;;5074488;28;20086;-73
2023/07/11 11:10:06;;;;;;;2.37;1.17;;;26.50;81.40;;;;;;5074533;28;20036;-73
2023/07/11 11:13:01;;;;;;;3.47;1.40;;;26.30;81.80;;;;;;5056495;28;20384;-73
2023/07/11 11:15:33;;;;;;;4.28;1.48;;;26.30;82.10;;;;;;5032922;28;20113;-73
2023/07/11 11:18:34;;;;;;;4.22;1.45;;;26.20;82.30;;;;;;5074207;28;20027;-72
2023/07/11 11:21:07;;;;;;;3.45;1.52;;;26.20;82.20;;;;;;5074105;28;20064;-73
2023/07/11 11:23:47;;;;;;;2.10;1.30;;;26.20;82.50;;;;;;5074129;28;20096;-73
2023/07/11 11:26:30;;;;;;;2.60;1.15;;;26.20;82.50;;;;;;5056183;28;20021;-73
2023/07/11 11:29:17;;;;;;;3.58;1.45;;;26.20;82.50;;;;;;5073915;28;20103;-72
2023/07/11 11:32:08;;;;;;;2.42;1.20;;;26.20;82.60;;;;;;5073844;28;20020;-72
2023/07/11 11:34:59;;;;;;;3.92;1.33;;;26.20;82.70;;;;;;5043008;28;20033;-72
2023/07/11 11:37:37;;;;;;;3.67;1.48;;;26.20;82.70;;;;;;5073855;28;20036;-73
2023/07/11 11:40:14;;;;;;;2.10;1.30;;;26.20;82.70;;;;;;5073825;28;20033;-73
2023/07/11 11:42:43;;;;;;;3.60;1.20;;;26.20;82.70;;;;;;5073833;28;20040;-73
2023/07/11 11:45:19;;;;;;;3.22;1.40;;;26.20;82.70;;;;;;5073723;28;20047;-74
2023/07/11 11:47:46;;;;;;;2.90;1.00;;;26.30;82.80;;;;;;5073983;28;20039;-73
2023/07/11 11:50:19;;;;;;;1.70;0.95;;;26.20;82.70;;;;;;5073470;28;20116;-73
2023/07/11 11:52:44;;;;;;;4.13;1.40;;;26.20;82.70;;;;;;5073634;28;20017;-73
2023/07/11 11:55:31;;;;;;;2.78;1.25;;;26.20;82.70;;;;;;5073480;28;20531;-73
2023/07/11 11:57:57;;;;;;;3.42;1.40;;;26.20;82.70;;;;;;5073698;28;20110;-73
2023/07/11 12:00:45;;;;;;;2.63;1.45;;;26.20;82.70;;;;;;5073076;28;20043;-73
2023/07/11 12:03:42;;;;;;;3.38;1.30;;;26.20;82.70;;;;;;5073463;28;20060;-73
2023/07/11 12:06:41;;;;;;;3.13;1.10;;;26.30;82.80;;;;;;5073430;28;20029;-73
2023/07/11 12:09:33;;;;;;;3.20;1.40;;;26.30;82.80;;;;;;5029873;28;20416;-73
2023/07/11 12:12:11;;;;;;;2.28;1.20;;;26.30;82.80;;;;;;5042363;28;20469;-73
2023/07/11 12:14:52;;;;;;;3.03;1.27;;;26.20;82.70;;;;;;5073072;28;20024;-74
2023/07/11 12:17:33;;;;;;;2.65;1.20;;;26.30;82.80;;;;;;5073229;28;20058;-74
2023/07/11 12:20:05;;;;;;;2.15;1.13;;;26.30;82.70;;;;;;5073265;28;20075;-75
2023/07/11 12:22:36;;;;;;;;;;;26.30;82.70;;;;;;5055586;28;20032;-75
2023/07/11 12:25:26;;;;;;;2.55;1.50;;;26.30;82.70;;;;;;5073221;28;19927;-74
2023/07/11 12:28:01;;;;;;;3.15;1.60;;;26.30;82.70;;;;;;5073405;28;20166;-74
2023/07/11 12:30:27;;;;;;;3.20;1.35;;;26.30;82.70;;;;;;5072804;28;20020;-74
2023/07/11 12:33:13;;;;;;;2.50;1.38;;;26.30;82.70;;;;;;5073007;28;20028;-74
2023/07/11 12:35:39;;;;;;;1.83;1.20;;;26.30;82.70;;;;;;5072710;28;20480;-74
2023/07/11 12:38:22;;;;;;;2.13;1.20;;;26.30;82.60;;;;;;5073268;28;20029;-75
2023/07/11 12:41:06;;;;;;;3.65;1.48;;;26.30;82.70;;;;;;5072911;28;20025;-74
2023/07/11 12:43:36;;;;;;;1.83;1.00;;;26.30;82.70;;;;;;5072739;28;20103;-74
2023/07/11 12:46:11;;;;;;;2.90;1.42;;;26.30;82.70;;;;;;5072934;28;20021;-75
2023/07/11 12:48:43;;;;;;;3.03;1.35;;;26.30;82.70;;;;;;5072946;28;20020;-75
2023/07/11 12:51:27;;;;;;;3.25;1.25;;;26.30;82.70;;;;;;5054620;28;20056;-74
2023/07/11 12:54:19;;;;;;;2.00;1.15;;;26.40;82.70;;;;;;5055022;28;20031;-74
2023/07/11 12:56:49;;;;;;;2.53;1.20;;;26.40;82.80;;;;;;5072600;28;20420;-74
2023/07/11 12:59:29;;;;;;;1.70;0.90;;;26.40;82.70;;;;;;5072679;28;20058;-74
2023/07/11 13:01:58;;;;;;;2.10;1.20;;;26.40;82.70;;;;;;5054770;28;20032;-75
2023/07/11 13:04:37;;;;;;;2.55;1.23;;;26.40;82.60;;;;;;5072941;28;20017;-74